sensor_id;sensor_type;location;lat;lon;timestamp;pressure;altitude;pressure_sealevel;temperature;humidity
64343;BME280;50675;53.530;-6.312;2023-05-19T00:00:40;102261.91;;;17.70;57.58
64343;BME280;50675;53.530;-6.312;2023-05-19T00:03:09;102254.53;;;17.71;57.73
64343;BME280;50675;53.530;-6.312;2023-05-19T00:05:41;102252.63;;;17.71;57.81
64343;BME280;50675;53.530;-6.312;2023-05-19T00:08:16;102259.47;;;17.74;57.94
64343;BME280;50675;53.530;-6.312;2023-05-19T00:10:45;102265.00;;;17.79;57.87
64343;BME280;50675;53.530;-6.312;2023-05-19T00:13:14;102262.00;;;17.80;58.09
64343;BME280;50675;53.530;-6.312;2023-05-19T00:15:45;102261.44;;;17.78;58.03
64343;BME280;50675;53.530;-6.312;2023-05-19T00:18:11;102260.41;;;17.84;58.32
64343;BME280;50675;53.530;-6.312;2023-05-19T00:20:38;102259.81;;;17.82;58.11
64343;BME280;50675;53.530;-6.312;2023-05-19T00:23:07;102259.34;;;17.85;58.30
64343;BME280;50675;53.530;-6.312;2023-05-19T00:25:49;102281.19;;;17.85;58.48
64343;BME280;50675;53.530;-6.312;2023-05-19T00:28:33;102282.28;;;17.84;58.55
64343;BME280;50675;53.530;-6.312;2023-05-19T00:31:27;102298.69;;;17.84;58.55
64343;BME280;50675;53.530;-6.312;2023-05-19T00:34:50;102295.53;;;17.71;58.80
64343;BME280;50675;53.530;-6.312;2023-05-19T00:46:40;102294.41;;;17.28;58.92
64343;BME280;50675;53.530;-6.312;2023-05-19T00:53:36;102293.84;;;17.26;59.17
64343;BME280;50675;53.530;-6.312;2023-05-19T01:00:11;102300.66;;;17.07;59.29
64343;BME280;50675;53.530;-6.312;2023-05-19T01:11:47;102315.09;;;16.69;59.38
64343;BME280;50675;53.530;-6.312;2023-05-19T01:15:40;102305.00;;;16.70;59.33
64343;BME280;50675;53.530;-6.312;2023-05-19T01:18:24;102295.59;;;16.60;59.51
64343;BME280;50675;53.530;-6.312;2023-05-19T01:22:05;102288.56;;;16.65;59.46
64343;BME280;50675;53.530;-6.312;2023-05-19T01:30:56;102276.28;;;16.50;59.54
64343;BME280;50675;53.530;-6.312;2023-05-19T01:33:29;102279.94;;;16.39;59.61
64343;BME280;50675;53.530;-6.312;2023-05-19T01:36:03;102291.94;;;16.38;59.55
64343;BME280;50675;53.530;-6.312;2023-05-19T01:38:37;102287.34;;;16.27;59.58
64343;BME280;50675;53.530;-6.312;2023-05-19T01:41:10;102296.88;;;16.25;59.56
64343;BME280;50675;53.530;-6.312;2023-05-19T01:43:47;102282.47;;;16.12;59.68
64343;BME280;50675;53.530;-6.312;2023-05-19T01:46:20;102291.72;;;16.11;59.54
64343;BME280;50675;53.530;-6.312;2023-05-19T01:48:47;102281.72;;;16.00;59.49
64343;BME280;50675;53.530;-6.312;2023-05-19T01:51:21;102290.03;;;15.94;59.40
64343;BME280;50675;53.530;-6.312;2023-05-19T01:53:53;102284.19;;;15.73;59.58
64343;BME280;50675;53.530;-6.312;2023-05-19T01:56:45;102299.66;;;15.85;59.48
64343;BME280;50675;53.530;-6.312;2023-05-19T02:02:11;102295.25;;;15.67;59.65
64343;BME280;50675;53.530;-6.312;2023-05-19T02:04:42;102296.19;;;15.61;59.50
64343;BME280;50675;53.530;-6.312;2023-05-19T02:07:14;102295.25;;;15.55;59.48
64343;BME280;50675;53.530;-6.312;2023-05-19T02:10:04;102309.00;;;15.49;59.36
64343;BME280;50675;53.530;-6.312;2023-05-19T02:12:35;102306.41;;;15.42;59.46
64343;BME280;50675;53.530;-6.312;2023-05-19T02:15:20;102306.28;;;15.37;59.43
64343;BME280;50675;53.530;-6.312;2023-05-19T02:17:49;102306.66;;;15.29;59.28
64343;BME280;50675;53.530;-6.312;2023-05-19T02:20:21;102314.00;;;15.28;59.48
64343;BME280;50675;53.530;-6.312;2023-05-19T02:26:28;102307.50;;;15.18;59.32
64343;BME280;50675;53.530;-6.312;2023-05-19T02:30:14;102292.38;;;15.10;59.46
64343;BME280;50675;53.530;-6.312;2023-05-19T02:33:45;102300.41;;;15.05;59.34
64343;BME280;50675;53.530;-6.312;2023-05-19T02:40:55;102316.50;;;14.95;59.36
64343;BME280;50675;53.530;-6.312;2023-05-19T02:44:14;102314.94;;;14.87;59.18
64343;BME280;50675;53.530;-6.312;2023-05-19T02:47:03;102319.00;;;14.85;59.31
64343;BME280;50675;53.530;-6.312;2023-05-19T02:49:40;102313.91;;;14.77;59.33
64343;BME280;50675;53.530;-6.312;2023-05-19T02:52:07;102315.19;;;14.74;59.36
64343;BME280;50675;53.530;-6.312;2023-05-19T02:54:42;102316.25;;;14.73;59.48
64343;BME280;50675;53.530;-6.312;2023-05-19T02:57:13;102314.00;;;14.70;59.36
64343;BME280;50675;53.530;-6.312;2023-05-19T02:59:39;102305.84;;;14.70;59.41
64343;BME280;50675;53.530;-6.312;2023-05-19T03:02:10;102307.25;;;14.61;59.38
64343;BME280;50675;53.530;-6.312;2023-05-19T03:04:42;102318.13;;;14.61;59.45
64343;BME280;50675;53.530;-6.312;2023-05-19T03:07:09;102316.97;;;14.57;59.47
64343;BME280;50675;53.530;-6.312;2023-05-19T03:22:13;102331.69;;;14.50;59.60
64343;BME280;50675;53.530;-6.312;2023-05-19T03:29:00;102323.53;;;14.38;59.46
64343;BME280;50675;53.530;-6.312;2023-05-19T03:32:35;102328.81;;;14.33;59.27
64343;BME280;50675;53.530;-6.312;2023-05-19T03:36:22;102332.34;;;14.33;59.28
64343;BME280;50675;53.530;-6.312;2023-05-19T03:47:20;102325.47;;;14.19;59.24
64343;BME280;50675;53.530;-6.312;2023-05-19T03:54:04;102331.81;;;14.13;59.41
64343;BME280;50675;53.530;-6.312;2023-05-19T03:57:40;102330.63;;;14.09;59.45
64343;BME280;50675;53.530;-6.312;2023-05-19T04:01:08;102335.69;;;14.06;59.54
64343;BME280;50675;53.530;-6.312;2023-05-19T04:11:56;102352.69;;;14.01;59.46
64343;BME280;50675;53.530;-6.312;2023-05-19T04:14:22;102355.75;;;14.05;59.45
64343;BME280;50675;53.530;-6.312;2023-05-19T04:16:49;102362.03;;;14.05;59.38
64343;BME280;50675;53.530;-6.312;2023-05-19T04:19:18;102364.97;;;14.03;59.39
64343;BME280;50675;53.530;-6.312;2023-05-19T04:21:46;102366.28;;;14.01;59.46
64343;BME280;50675;53.530;-6.312;2023-05-19T04:24:15;102361.06;;;13.99;59.26
64343;BME280;50675;53.530;-6.312;2023-05-19T04:26:59;102377.34;;;13.99;59.38
64343;BME280;50675;53.530;-6.312;2023-05-19T04:29:29;102374.72;;;14.11;59.51
64343;BME280;50675;53.530;-6.312;2023-05-19T04:31:57;102372.44;;;14.08;59.59
64343;BME280;50675;53.530;-6.312;2023-05-19T04:34:28;102372.44;;;14.08;59.53
64343;BME280;50675;53.530;-6.312;2023-05-19T04:37:03;102368.53;;;14.04;59.66
64343;BME280;50675;53.530;-6.312;2023-05-19T04:39:31;102381.63;;;14.07;59.57
64343;BME280;50675;53.530;-6.312;2023-05-19T04:42:17;102396.81;;;14.15;59.59
64343;BME280;50675;53.530;-6.312;2023-05-19T04:44:46;102389.50;;;14.15;59.69
64343;BME280;50675;53.530;-6.312;2023-05-19T04:47:14;102391.97;;;14.17;59.73
64343;BME280;50675;53.530;-6.312;2023-05-19T04:49:42;102381.09;;;14.17;59.72
64343;BME280;50675;53.530;-6.312;2023-05-19T04:52:14;102379.22;;;14.17;59.78
64343;BME280;50675;53.530;-6.312;2023-05-19T04:54:45;102379.56;;;14.21;59.91
64343;BME280;50675;53.530;-6.312;2023-05-19T04:57:11;102382.69;;;14.24;59.87
64343;BME280;50675;53.530;-6.312;2023-05-19T04:59:37;102374.97;;;14.21;59.84
64343;BME280;50675;53.530;-6.312;2023-05-19T05:06:16;102379.25;;;14.29;60.11
64343;BME280;50675;53.530;-6.312;2023-05-19T05:11:48;102370.06;;;14.30;60.11
64343;BME280;50675;53.530;-6.312;2023-05-19T05:14:33;102384.19;;;14.38;59.95
64343;BME280;50675;53.530;-6.312;2023-05-19T05:16:59;102382.50;;;14.37;60.06
64343;BME280;50675;53.530;-6.312;2023-05-19T05:19:26;102391.28;;;14.21;60.36
64343;BME280;50675;53.530;-6.312;2023-05-19T05:21:55;102384.41;;;14.19;60.13
64343;BME280;50675;53.530;-6.312;2023-05-19T05:24:24;102381.84;;;14.24;60.03
64343;BME280;50675;53.530;-6.312;2023-05-19T05:26:52;102376.41;;;14.24;60.13
64343;BME280;50675;53.530;-6.312;2023-05-19T05:29:26;102388.41;;;14.34;60.35
64343;BME280;50675;53.530;-6.312;2023-05-19T05:35:40;102398.19;;;14.54;60.41
64343;BME280;50675;53.530;-6.312;2023-05-19T05:38:15;102398.41;;;14.52;60.45
64343;BME280;50675;53.530;-6.312;2023-05-19T05:41:21;102394.78;;;14.58;60.79
64343;BME280;50675;53.530;-6.312;2023-05-19T05:45:01;102395.47;;;14.65;60.67
64343;BME280;50675;53.530;-6.312;2023-05-19T05:48:28;102391.59;;;14.73;60.56
64343;BME280;50675;53.530;-6.312;2023-05-19T05:50:59;102381.78;;;14.72;61.06
64343;BME280;50675;53.530;-6.312;2023-05-19T05:58:04;102386.78;;;14.86;61.29
64343;BME280;50675;53.530;-6.312;2023-05-19T06:01:01;102391.66;;;14.96;61.09
64343;BME280;50675;53.530;-6.312;2023-05-19T06:07:43;102389.25;;;15.11;61.82
64343;BME280;50675;53.530;-6.312;2023-05-19T06:10:36;102390.81;;;15.19;61.47
64343;BME280;50675;53.530;-6.312;2023-05-19T06:13:49;102394.50;;;15.24;61.69
64343;BME280;50675;53.530;-6.312;2023-05-19T06:16:15;102392.72;;;15.30;61.63
64343;BME280;50675;53.530;-6.312;2023-05-19T06:18:41;102384.91;;;15.33;61.88
64343;BME280;50675;53.530;-6.312;2023-05-19T06:21:13;102397.94;;;15.43;61.89
64343;BME280;50675;53.530;-6.312;2023-05-19T06:23:39;102400.31;;;15.51;62.04
64343;BME280;50675;53.530;-6.312;2023-05-19T06:26:08;102378.53;;;15.51;61.94
64343;BME280;50675;53.530;-6.312;2023-05-19T06:28:37;102373.28;;;15.61;62.17
64343;BME280;50675;53.530;-6.312;2023-05-19T06:31:03;102372.22;;;15.62;62.18
64343;BME280;50675;53.530;-6.312;2023-05-19T06:33:29;102384.66;;;15.70;62.14
64343;BME280;50675;53.530;-6.312;2023-05-19T06:35:55;102381.44;;;15.73;62.13
64343;BME280;50675;53.530;-6.312;2023-05-19T06:38:21;102369.13;;;15.70;62.33
64343;BME280;50675;53.530;-6.312;2023-05-19T06:40:46;102375.03;;;15.79;62.20
64343;BME280;50675;53.530;-6.312;2023-05-19T06:43:12;102382.97;;;15.81;62.29
64343;BME280;50675;53.530;-6.312;2023-05-19T06:45:38;102389.59;;;15.85;62.77
64343;BME280;50675;53.530;-6.312;2023-05-19T06:48:04;102387.47;;;15.87;62.25
64343;BME280;50675;53.530;-6.312;2023-05-19T06:50:30;102396.69;;;15.86;62.36
64343;BME280;50675;53.530;-6.312;2023-05-19T06:52:56;102398.94;;;15.89;62.57
64343;BME280;50675;53.530;-6.312;2023-05-19T06:55:22;102395.75;;;15.92;62.43
64343;BME280;50675;53.530;-6.312;2023-05-19T06:57:48;102408.28;;;15.93;62.41
64343;BME280;50675;53.530;-6.312;2023-05-19T07:00:14;102409.00;;;16.00;62.46
64343;BME280;50675;53.530;-6.312;2023-05-19T07:02:41;102412.28;;;16.02;62.62
64343;BME280;50675;53.530;-6.312;2023-05-19T07:05:07;102404.72;;;16.04;62.49
64343;BME280;50675;53.530;-6.312;2023-05-19T07:07:33;102402.56;;;16.06;62.21
64343;BME280;50675;53.530;-6.312;2023-05-19T07:09:59;102400.66;;;16.06;62.53
64343;BME280;50675;53.530;-6.312;2023-05-19T07:12:25;102403.44;;;16.23;62.55
64343;BME280;50675;53.530;-6.312;2023-05-19T07:14:52;102421.06;;;16.32;62.64
64343;BME280;50675;53.530;-6.312;2023-05-19T07:17:19;102420.97;;;16.27;62.63
64343;BME280;50675;53.530;-6.312;2023-05-19T07:19:44;102433.38;;;16.35;62.61
64343;BME280;50675;53.530;-6.312;2023-05-19T07:22:11;102436.47;;;16.38;62.55
64343;BME280;50675;53.530;-6.312;2023-05-19T07:24:36;102440.25;;;16.37;62.60
64343;BME280;50675;53.530;-6.312;2023-05-19T07:27:03;102442.03;;;16.43;62.77
64343;BME280;50675;53.530;-6.312;2023-05-19T07:29:29;102444.16;;;16.41;62.41
64343;BME280;50675;53.530;-6.312;2023-05-19T07:31:55;102446.31;;;16.39;62.51
64343;BME280;50675;53.530;-6.312;2023-05-19T07:34:25;102445.81;;;16.42;62.66
64343;BME280;50675;53.530;-6.312;2023-05-19T07:36:51;102444.69;;;16.55;62.72
64343;BME280;50675;53.530;-6.312;2023-05-19T07:39:17;102449.91;;;16.56;62.70
64343;BME280;50675;53.530;-6.312;2023-05-19T07:41:43;102451.19;;;16.66;62.69
64343;BME280;50675;53.530;-6.312;2023-05-19T07:44:09;102441.44;;;16.70;62.56
64343;BME280;50675;53.530;-6.312;2023-05-19T07:46:35;102441.63;;;16.80;62.48
64343;BME280;50675;53.530;-6.312;2023-05-19T07:49:02;102432.72;;;16.84;62.61
64343;BME280;50675;53.530;-6.312;2023-05-19T07:51:28;102436.91;;;16.92;62.52
64343;BME280;50675;53.530;-6.312;2023-05-19T07:53:54;102440.66;;;16.86;62.40
64343;BME280;50675;53.530;-6.312;2023-05-19T07:56:19;102431.22;;;16.77;62.44
64343;BME280;50675;53.530;-6.312;2023-05-19T07:58:46;102442.72;;;16.95;62.18
64343;BME280;50675;53.530;-6.312;2023-05-19T08:05:18;102434.63;;;17.17;62.22
64343;BME280;50675;53.530;-6.312;2023-05-19T08:07:44;102436.69;;;17.27;62.38
64343;BME280;50675;53.530;-6.312;2023-05-19T08:10:09;102440.97;;;17.39;62.26
64343;BME280;50675;53.530;-6.312;2023-05-19T08:12:35;102453.72;;;17.50;62.51
64343;BME280;50675;53.530;-6.312;2023-05-19T08:15:01;102449.50;;;17.60;62.61
64343;BME280;50675;53.530;-6.312;2023-05-19T08:17:27;102458.19;;;17.57;62.50
64343;BME280;50675;53.530;-6.312;2023-05-19T08:19:52;102460.19;;;17.61;62.09
64343;BME280;50675;53.530;-6.312;2023-05-19T08:22:18;102460.00;;;17.68;62.31
64343;BME280;50675;53.530;-6.312;2023-05-19T08:24:43;102462.31;;;17.76;62.64
64343;BME280;50675;53.530;-6.312;2023-05-19T08:27:09;102471.59;;;17.75;62.61
64343;BME280;50675;53.530;-6.312;2023-05-19T08:29:35;102469.06;;;17.90;62.64
64343;BME280;50675;53.530;-6.312;2023-05-19T08:32:02;102462.00;;;17.94;62.59
64343;BME280;50675;53.530;-6.312;2023-05-19T08:34:29;102475.69;;;17.94;62.56
64343;BME280;50675;53.530;-6.312;2023-05-19T08:36:55;102466.97;;;17.97;62.73
64343;BME280;50675;53.530;-6.312;2023-05-19T08:39:22;102462.31;;;17.98;62.79
64343;BME280;50675;53.530;-6.312;2023-05-19T08:41:54;102457.75;;;18.03;62.74
64343;BME280;50675;53.530;-6.312;2023-05-19T08:44:21;102456.03;;;17.97;62.66
64343;BME280;50675;53.530;-6.312;2023-05-19T08:46:47;102465.06;;;17.98;62.67
64343;BME280;50675;53.530;-6.312;2023-05-19T08:49:16;102459.13;;;18.06;62.60
64343;BME280;50675;53.530;-6.312;2023-05-19T08:52:08;102458.44;;;18.15;62.45
64343;BME280;50675;53.530;-6.312;2023-05-19T08:54:45;102443.44;;;18.18;62.80
64343;BME280;50675;53.530;-6.312;2023-05-19T08:57:15;102451.50;;;18.29;62.53
64343;BME280;50675;53.530;-6.312;2023-05-19T08:59:42;102451.00;;;18.32;62.73
64343;BME280;50675;53.530;-6.312;2023-05-19T09:02:10;102442.34;;;18.41;62.67
64343;BME280;50675;53.530;-6.312;2023-05-19T09:04:38;102436.38;;;18.44;62.73
64343;BME280;50675;53.530;-6.312;2023-05-19T09:07:04;102450.41;;;18.52;62.84
64343;BME280;50675;53.530;-6.312;2023-05-19T09:09:30;102450.78;;;18.61;62.87
64343;BME280;50675;53.530;-6.312;2023-05-19T09:11:56;102433.16;;;18.78;62.46
64343;BME280;50675;53.530;-6.312;2023-05-19T09:14:22;102432.66;;;18.82;62.45
64343;BME280;50675;53.530;-6.312;2023-05-19T09:16:48;102429.09;;;18.81;62.64
64343;BME280;50675;53.530;-6.312;2023-05-19T09:19:17;102422.66;;;18.97;62.14
64343;BME280;50675;53.530;-6.312;2023-05-19T09:21:45;102424.66;;;19.07;62.46
64343;BME280;50675;53.530;-6.312;2023-05-19T09:24:11;102420.84;;;19.08;62.43
64343;BME280;50675;53.530;-6.312;2023-05-19T09:26:41;102425.28;;;19.14;61.96
64343;BME280;50675;53.530;-6.312;2023-05-19T09:29:16;102427.56;;;19.27;62.37
64343;BME280;50675;53.530;-6.312;2023-05-19T09:31:53;102426.47;;;19.28;62.03
64343;BME280;50675;53.530;-6.312;2023-05-19T09:34:21;102420.53;;;19.41;62.01
64343;BME280;50675;53.530;-6.312;2023-05-19T09:36:49;102428.72;;;19.36;61.92
64343;BME280;50675;53.530;-6.312;2023-05-19T09:39:17;102434.44;;;19.35;61.59
64343;BME280;50675;53.530;-6.312;2023-05-19T09:41:44;102421.09;;;19.43;61.44
64343;BME280;50675;53.530;-6.312;2023-05-19T09:44:21;102431.03;;;19.54;61.49
64343;BME280;50675;53.530;-6.312;2023-05-19T09:46:53;102435.47;;;19.60;61.52
64343;BME280;50675;53.530;-6.312;2023-05-19T09:49:21;102433.06;;;19.74;61.49
64343;BME280;50675;53.530;-6.312;2023-05-19T09:51:53;102436.72;;;19.85;61.38
64343;BME280;50675;53.530;-6.312;2023-05-19T09:54:20;102436.41;;;19.86;61.13
64343;BME280;50675;53.530;-6.312;2023-05-19T09:56:59;102445.25;;;19.93;61.27
64343;BME280;50675;53.530;-6.312;2023-05-19T09:59:27;102438.91;;;19.88;60.97
64343;BME280;50675;53.530;-6.312;2023-05-19T10:01:57;102446.34;;;19.92;60.81
64343;BME280;50675;53.530;-6.312;2023-05-19T10:04:25;102434.28;;;19.93;60.70
64343;BME280;50675;53.530;-6.312;2023-05-19T10:06:55;102436.44;;;19.91;60.52
64343;BME280;50675;53.530;-6.312;2023-05-19T10:09:25;102436.81;;;20.05;60.51
64343;BME280;50675;53.530;-6.312;2023-05-19T10:11:51;102434.91;;;20.21;60.92
64343;BME280;50675;53.530;-6.312;2023-05-19T10:14:21;102431.34;;;20.20;60.81
64343;BME280;50675;53.530;-6.312;2023-05-19T10:16:49;102436.34;;;20.28;60.94
64343;BME280;50675;53.530;-6.312;2023-05-19T10:19:19;102441.06;;;20.43;60.64
64343;BME280;50675;53.530;-6.312;2023-05-19T10:21:46;102442.97;;;20.37;60.70
64343;BME280;50675;53.530;-6.312;2023-05-19T10:24:12;102445.13;;;20.30;60.53
64343;BME280;50675;53.530;-6.312;2023-05-19T10:26:40;102435.28;;;20.44;60.68
64343;BME280;50675;53.530;-6.312;2023-05-19T10:29:09;102438.03;;;20.39;60.29
64343;BME280;50675;53.530;-6.312;2023-05-19T10:31:36;102427.66;;;20.62;60.30
64343;BME280;50675;53.530;-6.312;2023-05-19T10:37:06;102431.78;;;20.64;59.69
64343;BME280;50675;53.530;-6.312;2023-05-19T10:39:40;102430.41;;;20.82;60.24
64343;BME280;50675;53.530;-6.312;2023-05-19T10:42:14;102435.06;;;20.81;59.99
64343;BME280;50675;53.530;-6.312;2023-05-19T10:45:04;102438.94;;;20.80;59.63
64343;BME280;50675;53.530;-6.312;2023-05-19T10:47:34;102433.44;;;21.01;59.64
64343;BME280;50675;53.530;-6.312;2023-05-19T10:50:00;102427.94;;;21.06;59.65
64343;BME280;50675;53.530;-6.312;2023-05-19T10:52:26;102432.34;;;21.02;59.33
64343;BME280;50675;53.530;-6.312;2023-05-19T10:54:54;102442.78;;;20.89;59.19
64343;BME280;50675;53.530;-6.312;2023-05-19T10:57:26;102438.66;;;21.02;58.97
64343;BME280;50675;53.530;-6.312;2023-05-19T10:59:58;102426.00;;;21.06;59.40
64343;BME280;50675;53.530;-6.312;2023-05-19T11:05:17;102429.31;;;21.08;58.94
64343;BME280;50675;53.530;-6.312;2023-05-19T11:07:58;102439.53;;;21.18;59.02
64343;BME280;50675;53.530;-6.312;2023-05-19T11:10:30;102443.94;;;21.14;58.46
64343;BME280;50675;53.530;-6.312;2023-05-19T11:12:56;102438.97;;;21.16;58.39
64343;BME280;50675;53.530;-6.312;2023-05-19T11:15:24;102438.44;;;21.14;58.07
64343;BME280;50675;53.530;-6.312;2023-05-19T11:17:54;102440.84;;;21.10;58.38
64343;BME280;50675;53.530;-6.312;2023-05-19T11:20:25;102438.97;;;21.21;58.20
64343;BME280;50675;53.530;-6.312;2023-05-19T11:23:09;102443.34;;;21.32;58.08
64343;BME280;50675;53.530;-6.312;2023-05-19T11:25:40;102440.34;;;21.18;57.88
64343;BME280;50675;53.530;-6.312;2023-05-19T11:28:09;102447.75;;;21.28;57.99
64343;BME280;50675;53.530;-6.312;2023-05-19T11:30:36;102438.97;;;21.21;57.72
64343;BME280;50675;53.530;-6.312;2023-05-19T11:33:03;102443.63;;;21.30;57.60
64343;BME280;50675;53.530;-6.312;2023-05-19T11:35:32;102437.31;;;21.25;57.98
64343;BME280;50675;53.530;-6.312;2023-05-19T11:38:01;102440.59;;;21.32;57.46
64343;BME280;50675;53.530;-6.312;2023-05-19T11:40:28;102427.97;;;21.26;57.32
64343;BME280;50675;53.530;-6.312;2023-05-19T11:42:54;102436.47;;;21.29;57.30
64343;BME280;50675;53.530;-6.312;2023-05-19T11:45:30;102440.03;;;21.35;57.36
64343;BME280;50675;53.530;-6.312;2023-05-19T11:47:57;102427.38;;;21.34;57.16
64343;BME280;50675;53.530;-6.312;2023-05-19T11:50:24;102439.47;;;21.43;56.89
64343;BME280;50675;53.530;-6.312;2023-05-19T11:52:51;102442.22;;;21.48;57.15
64343;BME280;50675;53.530;-6.312;2023-05-19T11:55:18;102446.63;;;21.39;56.89
64343;BME280;50675;53.530;-6.312;2023-05-19T11:58:17;102442.25;;;21.33;56.68
64343;BME280;50675;53.530;-6.312;2023-05-19T12:00:49;102443.34;;;21.32;56.30
64343;BME280;50675;53.530;-6.312;2023-05-19T12:03:20;102439.47;;;21.43;56.51
64343;BME280;50675;53.530;-6.312;2023-05-19T12:05:47;102438.13;;;21.30;56.28
64343;BME280;50675;53.530;-6.312;2023-05-19T12:08:13;102443.03;;;21.44;56.13
64343;BME280;50675;53.530;-6.312;2023-05-19T12:11:16;102423.84;;;21.33;56.00
64343;BME280;50675;53.530;-6.312;2023-05-19T13:31:49;102425.13;;;22.85;53.27
64343;BME280;50675;53.530;-6.312;2023-05-19T13:34:16;102422.94;;;22.77;53.24
64343;BME280;50675;53.530;-6.312;2023-05-19T13:36:44;102438.84;;;22.90;53.13
64343;BME280;50675;53.530;-6.312;2023-05-19T13:39:12;102428.66;;;22.90;52.84
64343;BME280;50675;53.530;-6.312;2023-05-19T13:41:38;102433.66;;;22.83;52.98
64343;BME280;50675;53.530;-6.312;2023-05-19T13:44:04;102430.91;;;22.83;52.86
64343;BME280;50675;53.530;-6.312;2023-05-19T13:46:30;102420.38;;;22.90;52.74
64343;BME280;50675;53.530;-6.312;2023-05-19T13:48:56;102409.84;;;22.97;52.82
64343;BME280;50675;53.530;-6.312;2023-05-19T13:51:22;102413.09;;;23.04;52.83
64343;BME280;50675;53.530;-6.312;2023-05-19T13:53:48;102418.34;;;23.01;52.21
64343;BME280;50675;53.530;-6.312;2023-05-19T13:56:13;102415.22;;;23.13;52.56
64343;BME280;50675;53.530;-6.312;2023-05-19T13:58:39;102408.97;;;23.02;52.25
64343;BME280;50675;53.530;-6.312;2023-05-19T14:01:05;102412.41;;;23.18;52.38
64343;BME280;50675;53.530;-6.312;2023-05-19T14:03:31;102411.81;;;23.21;52.55
64343;BME280;50675;53.530;-6.312;2023-05-19T14:05:56;102428.22;;;23.07;52.07
64343;BME280;50675;53.530;-6.312;2023-05-19T14:08:34;102425.69;;;23.10;51.75
64343;BME280;50675;53.530;-6.312;2023-05-19T14:11:00;102418.06;;;23.02;51.81
64343;BME280;50675;53.530;-6.312;2023-05-19T14:13:26;102421.13;;;22.96;51.21
64343;BME280;50675;53.530;-6.312;2023-05-19T14:15:52;102404.09;;;22.94;51.21
64343;BME280;50675;53.530;-6.312;2023-05-19T14:18:18;102422.56;;;22.93;50.87
64343;BME280;50675;53.530;-6.312;2023-05-19T14:20:44;102413.94;;;23.00;50.88
64343;BME280;50675;53.530;-6.312;2023-05-19T14:23:10;102404.84;;;23.04;50.80
64343;BME280;50675;53.530;-6.312;2023-05-19T14:25:35;102411.25;;;22.95;50.63
64343;BME280;50675;53.530;-6.312;2023-05-19T14:28:01;102402.25;;;23.13;50.91
64343;BME280;50675;53.530;-6.312;2023-05-19T14:30:27;102412.19;;;23.14;50.63
64343;BME280;50675;53.530;-6.312;2023-05-19T14:32:53;102406.59;;;23.19;50.64
64343;BME280;50675;53.530;-6.312;2023-05-19T14:35:19;102411.19;;;23.29;50.54
64343;BME280;50675;53.530;-6.312;2023-05-19T14:37:45;102409.50;;;23.33;50.46
64343;BME280;50675;53.530;-6.312;2023-05-19T14:40:14;102401.09;;;23.43;50.38
64343;BME280;50675;53.530;-6.312;2023-05-19T14:42:40;102398.63;;;23.46;50.36
64343;BME280;50675;53.530;-6.312;2023-05-19T14:45:06;102405.16;;;23.56;50.27
64343;BME280;50675;53.530;-6.312;2023-05-19T14:47:32;102409.84;;;23.55;50.49
64343;BME280;50675;53.530;-6.312;2023-05-19T14:49:57;102409.75;;;23.65;50.19
64343;BME280;50675;53.530;-6.312;2023-05-19T14:52:23;102405.00;;;23.71;50.11
64343;BME280;50675;53.530;-6.312;2023-05-19T14:54:50;102398.28;;;23.77;50.34
64343;BME280;50675;53.530;-6.312;2023-05-19T14:57:16;102408.41;;;23.81;50.20
64343;BME280;50675;53.530;-6.312;2023-05-19T14:59:42;102399.91;;;23.78;50.13
64343;BME280;50675;53.530;-6.312;2023-05-19T15:02:39;102400.75;;;23.78;50.45
64343;BME280;50675;53.530;-6.312;2023-05-19T15:05:08;102392.63;;;23.87;49.84
64343;BME280;50675;53.530;-6.312;2023-05-19T15:08:07;102400.25;;;23.95;50.29
64343;BME280;50675;53.530;-6.312;2023-05-19T15:11:01;102407.31;;;23.82;50.15
64343;BME280;50675;53.530;-6.312;2023-05-19T15:14:03;102392.19;;;23.80;49.89
64343;BME280;50675;53.530;-6.312;2023-05-19T15:16:44;102386.88;;;23.83;49.86
64343;BME280;50675;53.530;-6.312;2023-05-19T15:24:57;102378.94;;;23.77;49.61
64343;BME280;50675;53.530;-6.312;2023-05-19T15:27:26;102395.09;;;23.88;49.52
64343;BME280;50675;53.530;-6.312;2023-05-19T15:29:52;102397.03;;;23.88;49.69
64343;BME280;50675;53.530;-6.312;2023-05-19T15:32:17;102395.94;;;23.89;49.75
64343;BME280;50675;53.530;-6.312;2023-05-19T15:34:43;102383.31;;;23.83;49.74
64343;BME280;50675;53.530;-6.312;2023-05-19T15:37:09;102385.25;;;23.82;49.38
64343;BME280;50675;53.530;-6.312;2023-05-19T15:39:34;102383.59;;;23.81;49.52
64343;BME280;50675;53.530;-6.312;2023-05-19T15:42:00;102385.53;;;23.81;49.71
64343;BME280;50675;53.530;-6.312;2023-05-19T15:44:26;102383.38;;;23.78;49.69
64343;BME280;50675;53.530;-6.312;2023-05-19T15:46:52;102386.72;;;23.75;49.63
64343;BME280;50675;53.530;-6.312;2023-05-19T15:49:18;102386.25;;;23.68;49.48
64343;BME280;50675;53.530;-6.312;2023-05-19T15:51:43;102374.97;;;23.64;49.67
64343;BME280;50675;53.530;-6.312;2023-05-19T15:54:10;102377.50;;;23.61;49.31
64343;BME280;50675;53.530;-6.312;2023-05-19T15:56:36;102382.44;;;23.64;49.35
64343;BME280;50675;53.530;-6.312;2023-05-19T15:59:01;102372.88;;;23.56;49.48
64343;BME280;50675;53.530;-6.312;2023-05-19T16:01:27;102374.59;;;23.52;49.13
64343;BME280;50675;53.530;-6.312;2023-05-19T16:03:53;102373.16;;;23.54;49.24
64343;BME280;50675;53.530;-6.312;2023-05-19T16:06:19;102369.34;;;23.50;49.21
64343;BME280;50675;53.530;-6.312;2023-05-19T16:08:45;102372.16;;;23.45;49.32
64343;BME280;50675;53.530;-6.312;2023-05-19T16:11:10;102375.16;;;23.49;49.18
64343;BME280;50675;53.530;-6.312;2023-05-19T16:13:36;102377.03;;;23.53;49.25
64343;BME280;50675;53.530;-6.312;2023-05-19T16:16:02;102374.59;;;23.52;49.14
64343;BME280;50675;53.530;-6.312;2023-05-19T16:18:33;102371.00;;;23.51;49.09
64343;BME280;50675;53.530;-6.312;2023-05-19T16:22:12;102375.09;;;23.54;49.40
64343;BME280;50675;53.530;-6.312;2023-05-19T16:26:08;102380.09;;;23.52;49.27